UAL201 KEWR-KRIC
Flight info
| Callsign | UAL201 |
|---|---|
| Flight time | 0h 45m |
| Altitude | 34000 |
| Route | ELVAE NECCK WHITE Q409 TRPOD/N0393F160 T303 JAMIE |
| Aircraft | A320/M-SDE3FGHIRWY/LB1 |
Departure
| Time | 2026-04-16 14:56 |
|---|---|
| Airport | Newark Liberty International Airport (KEWR) |
Arrival
| Time | 2026-04-16 15:41 |
|---|---|
| Airport | Richmond International Airport (KRIC) |
| Time | Latitude | Longitude | Altitude | Speed | Heading |
|---|---|---|---|---|---|
| 2026-04-16 14:39 | 40.69426 | -74.17484 | 26 ft | 0 kts | 12° |
| 2026-04-16 14:48 | 40.69409 | -74.17484 | 24 ft | 4 kts | 1° |
| 2026-04-16 14:49 | 40.69382 | -74.17483 | 23 ft | 4 kts | 346° |
| 2026-04-16 14:49 | 40.69358 | -74.17470 | 25 ft | 4 kts | 326° |
| 2026-04-16 14:49 | 40.69338 | -74.17450 | 26 ft | 2 kts | 322° |
| 2026-04-16 14:49 | 40.69337 | -74.17449 | 26 ft | 0 kts | 322° |
| 2026-04-16 14:51 | 40.69346 | -74.17445 | 26 ft | 1 kts | 31° |
| 2026-04-16 14:51 | 40.69347 | -74.17429 | 25 ft | 2 kts | 89° |
| 2026-04-16 14:51 | 40.69343 | -74.17396 | 22 ft | 5 kts | 102° |
| 2026-04-16 14:53 | 40.69507 | -74.16852 | 22 ft | 19 kts | 25° |
| 2026-04-16 14:53 | 40.69637 | -74.16772 | 22 ft | 22 kts | 25° |
| 2026-04-16 14:54 | 40.69781 | -74.16679 | 21 ft | 24 kts | 27° |
| 2026-04-16 14:54 | 40.69934 | -74.16579 | 21 ft | 19 kts | 24° |
| 2026-04-16 14:54 | 40.70045 | -74.16513 | 21 ft | 10 kts | 25° |
| 2026-04-16 14:54 | 40.70062 | -74.16478 | 21 ft | 0 kts | 76° |
| 2026-04-16 14:55 | 40.70063 | -74.16458 | 20 ft | 6 kts | 90° |
| 2026-04-16 14:55 | 40.70017 | -74.16389 | 19 ft | 15 kts | 167° |
| 2026-04-16 14:55 | 40.69879 | -74.16454 | 20 ft | 37 kts | 206° |
| 2026-04-16 14:55 | 40.69418 | -74.16735 | 23 ft | 106 kts | 204° |
| 2026-04-16 14:56 | 40.68590 | -74.17268 | 25 ft | 156 kts | 206° |
| 2026-04-16 14:56 | 40.67531 | -74.17959 | 299 ft | 178 kts | 202° |
| 2026-04-16 14:56 | 40.66401 | -74.18748 | 813 ft | 190 kts | 202° |
| 2026-04-16 14:56 | 40.65184 | -74.19603 | 1283 ft | 210 kts | 202° |
| 2026-04-16 14:57 | 40.63784 | -74.20377 | 1711 ft | 225 kts | 182° |
| 2026-04-16 14:57 | 40.62206 | -74.20148 | 2123 ft | 237 kts | 151° |
| 2026-04-16 14:57 | 40.60712 | -74.19094 | 2761 ft | 250 kts | 147° |
| 2026-04-16 14:57 | 40.59041 | -74.18352 | 3609 ft | 265 kts | 170° |
| 2026-04-16 14:58 | 40.57207 | -74.18792 | 4169 ft | 279 kts | 204° |
| 2026-04-16 14:58 | 40.53873 | -74.21419 | 6005 ft | 278 kts | 184° |
| 2026-04-16 14:58 | 40.51986 | -74.21215 | 6877 ft | 272 kts | 161° |
| 2026-04-16 14:59 | 40.50148 | -74.20589 | 7768 ft | 274 kts | 160° |
| 2026-04-16 14:59 | 40.48291 | -74.19971 | 8615 ft | 278 kts | 162° |
| 2026-04-16 14:59 | 40.46385 | -74.19400 | 9427 ft | 282 kts | 163° |
| 2026-04-16 14:59 | 40.44445 | -74.18886 | 10201 ft | 288 kts | 165° |
| 2026-04-16 15:00 | 40.42389 | -74.18385 | 10466 ft | 312 kts | 166° |
| 2026-04-16 15:00 | 40.40171 | -74.17878 | 10644 ft | 336 kts | 166° |
| 2026-04-16 15:00 | 40.37799 | -74.17362 | 11000 ft | 351 kts | 167° |
| 2026-04-16 15:00 | 40.35362 | -74.16849 | 11642 ft | 357 kts | 167° |
| 2026-04-16 15:01 | 40.32893 | -74.16366 | 12302 ft | 362 kts | 171° |
| 2026-04-16 15:01 | 40.30349 | -74.16363 | 12964 ft | 370 kts | 182° |
| 2026-04-16 15:01 | 40.27798 | -74.16995 | 13618 ft | 377 kts | 190° |
| 2026-04-16 15:01 | 40.25238 | -74.17781 | 13935 ft | 379 kts | 189° |
| 2026-04-16 15:02 | 40.23537 | -74.18299 | 14002 ft | 379 kts | 189° |
| 2026-04-16 15:02 | 40.20965 | -74.19074 | 14028 ft | 379 kts | 189° |
| 2026-04-16 15:02 | 40.18392 | -74.19841 | 14101 ft | 382 kts | 189° |
| 2026-04-16 15:02 | 40.15799 | -74.20610 | 14787 ft | 383 kts | 189° |
| 2026-04-16 15:03 | 40.13184 | -74.21386 | 15416 ft | 386 kts | 189° |
| 2026-04-16 15:03 | 40.10553 | -74.22169 | 16015 ft | 390 kts | 189° |
| 2026-04-16 15:03 | 40.07901 | -74.22962 | 16603 ft | 393 kts | 189° |
| 2026-04-16 15:03 | 40.05221 | -74.23762 | 17192 ft | 396 kts | 189° |
| 2026-04-16 15:04 | 40.02533 | -74.24635 | 17777 ft | 402 kts | 195° |
| 2026-04-16 15:04 | 39.99935 | -74.26065 | 18364 ft | 409 kts | 206° |
| 2026-04-16 15:04 | 39.97535 | -74.28108 | 18954 ft | 415 kts | 214° |
| 2026-04-16 15:04 | 39.95203 | -74.30350 | 19549 ft | 419 kts | 214° |
| 2026-04-16 15:05 | 39.92844 | -74.32602 | 20109 ft | 422 kts | 214° |
| 2026-04-16 15:05 | 39.90466 | -74.34864 | 20646 ft | 425 kts | 213° |
| 2026-04-16 15:05 | 39.88067 | -74.37145 | 21151 ft | 428 kts | 214° |
| 2026-04-16 15:05 | 39.85653 | -74.39436 | 21633 ft | 431 kts | 213° |
| 2026-04-16 15:06 | 39.83220 | -74.41746 | 22084 ft | 434 kts | 214° |
| 2026-04-16 15:06 | 39.80888 | -74.44279 | 22515 ft | 440 kts | 223° |
| 2026-04-16 15:06 | 39.78743 | -74.47125 | 22945 ft | 443 kts | 224° |
| 2026-04-16 15:06 | 39.76585 | -74.49996 | 23363 ft | 445 kts | 224° |
| 2026-04-16 15:07 | 39.74412 | -74.52883 | 23768 ft | 448 kts | 224° |
| 2026-04-16 15:07 | 39.72227 | -74.55779 | 24161 ft | 450 kts | 224° |
| 2026-04-16 15:07 | 39.70027 | -74.58688 | 24537 ft | 453 kts | 223° |
| 2026-04-16 15:07 | 39.67812 | -74.61612 | 24902 ft | 455 kts | 223° |
| 2026-04-16 15:08 | 39.65590 | -74.64543 | 25253 ft | 457 kts | 224° |
| 2026-04-16 15:08 | 39.63352 | -74.67498 | 25611 ft | 460 kts | 224° |
| 2026-04-16 15:08 | 39.61107 | -74.70463 | 25964 ft | 462 kts | 224° |
| 2026-04-16 15:08 | 39.58849 | -74.73443 | 26309 ft | 464 kts | 224° |
| 2026-04-16 15:09 | 39.56606 | -74.76398 | 26643 ft | 467 kts | 224° |
| 2026-04-16 15:09 | 39.54323 | -74.79399 | 26978 ft | 469 kts | 223° |
| 2026-04-16 15:09 | 39.52027 | -74.82413 | 27302 ft | 471 kts | 223° |
| 2026-04-16 15:09 | 39.49719 | -74.85440 | 27618 ft | 473 kts | 223° |
| 2026-04-16 15:10 | 39.47373 | -74.88515 | 27938 ft | 475 kts | 223° |
| 2026-04-16 15:10 | 39.45041 | -74.91567 | 28228 ft | 477 kts | 223° |
| 2026-04-16 15:10 | 39.42732 | -74.94587 | 28512 ft | 479 kts | 223° |
| 2026-04-16 15:10 | 39.40384 | -74.97654 | 28870 ft | 479 kts | 223° |
| 2026-04-16 15:11 | 39.38040 | -75.00711 | 29286 ft | 478 kts | 223° |
| 2026-04-16 15:11 | 39.35701 | -75.03763 | 29697 ft | 477 kts | 223° |
| 2026-04-16 15:11 | 39.33365 | -75.06812 | 29953 ft | 478 kts | 223° |
| 2026-04-16 15:12 | 39.28673 | -75.12868 | 30002 ft | 476 kts | 222° |
| 2026-04-16 15:12 | 39.23800 | -75.18650 | 30015 ft | 475 kts | 219° |
| 2026-04-16 15:13 | 39.18843 | -75.24282 | 30007 ft | 475 kts | 219° |
| 2026-04-16 15:13 | 39.13905 | -75.29946 | 30011 ft | 475 kts | 220° |
| 2026-04-16 15:14 | 39.09001 | -75.35662 | 30008 ft | 475 kts | 220° |
| 2026-04-16 15:14 | 39.03930 | -75.41086 | 30010 ft | 472 kts | 210° |
| 2026-04-16 15:15 | 38.97960 | -75.44388 | 30009 ft | 466 kts | 191° |
| 2026-04-16 15:15 | 38.91581 | -75.45529 | 30005 ft | 463 kts | 183° |
| 2026-04-16 15:16 | 38.85177 | -75.46399 | 30010 ft | 463 kts | 183° |
| 2026-04-16 15:16 | 38.78771 | -75.47286 | 30009 ft | 463 kts | 183° |
| 2026-04-16 15:17 | 38.72366 | -75.48180 | 30005 ft | 463 kts | 183° |
| 2026-04-16 15:17 | 38.65961 | -75.49053 | 30017 ft | 463 kts | 183° |
| 2026-04-16 15:18 | 38.59561 | -75.49919 | 29747 ft | 461 kts | 183° |
| 2026-04-16 15:18 | 38.56360 | -75.50352 | 28710 ft | 465 kts | 183° |
| 2026-04-16 15:18 | 38.53133 | -75.50788 | 27632 ft | 468 kts | 183° |
| 2026-04-16 15:18 | 38.49888 | -75.51225 | 26661 ft | 469 kts | 183° |
| 2026-04-16 15:19 | 38.46656 | -75.51662 | 26670 ft | 467 kts | 183° |
| 2026-04-16 15:19 | 38.43431 | -75.52100 | 25881 ft | 465 kts | 183° |
| 2026-04-16 15:19 | 38.40226 | -75.52537 | 25040 ft | 461 kts | 183° |
| 2026-04-16 15:19 | 38.37051 | -75.52969 | 24254 ft | 457 kts | 184° |
| 2026-04-16 15:20 | 38.33932 | -75.53707 | 23505 ft | 455 kts | 192° |
| 2026-04-16 15:20 | 38.30953 | -75.55031 | 22773 ft | 453 kts | 201° |
| 2026-04-16 15:20 | 38.28087 | -75.56653 | 22029 ft | 449 kts | 201° |
| 2026-04-16 15:20 | 38.25248 | -75.58260 | 21300 ft | 444 kts | 201° |
| 2026-04-16 15:21 | 38.22436 | -75.59846 | 20577 ft | 440 kts | 201° |
| 2026-04-16 15:21 | 38.19687 | -75.61390 | 20145 ft | 437 kts | 201° |
| 2026-04-16 15:21 | 38.16904 | -75.62948 | 19972 ft | 437 kts | 201° |
| 2026-04-16 15:21 | 38.14117 | -75.64508 | 20007 ft | 438 kts | 201° |
| 2026-04-16 15:22 | 38.11329 | -75.66069 | 20010 ft | 438 kts | 201° |
| 2026-04-16 15:22 | 38.08540 | -75.67632 | 20012 ft | 438 kts | 201° |
| 2026-04-16 15:22 | 38.05753 | -75.69195 | 20010 ft | 438 kts | 201° |
| 2026-04-16 15:22 | 38.02964 | -75.70757 | 20009 ft | 438 kts | 201° |
| 2026-04-16 15:23 | 38.00180 | -75.72319 | 20006 ft | 438 kts | 201° |
| 2026-04-16 15:23 | 37.97393 | -75.73886 | 20011 ft | 438 kts | 201° |
| 2026-04-16 15:23 | 37.94627 | -75.75511 | 20007 ft | 439 kts | 202° |
| 2026-04-16 15:23 | 37.91875 | -75.77191 | 20006 ft | 439 kts | 203° |
| 2026-04-16 15:24 | 37.89139 | -75.78899 | 20011 ft | 439 kts | 204° |
| 2026-04-16 15:24 | 37.86405 | -75.80611 | 19941 ft | 436 kts | 204° |
| 2026-04-16 15:24 | 37.83700 | -75.82296 | 19257 ft | 432 kts | 203° |
| 2026-04-16 15:24 | 37.81011 | -75.83955 | 18551 ft | 428 kts | 203° |
| 2026-04-16 15:25 | 37.78341 | -75.85586 | 17893 ft | 424 kts | 203° |
| 2026-04-16 15:25 | 37.75698 | -75.87188 | 17262 ft | 420 kts | 202° |
| 2026-04-16 15:25 | 37.73068 | -75.88774 | 16659 ft | 417 kts | 202° |
| 2026-04-16 15:25 | 37.70467 | -75.90345 | 16077 ft | 413 kts | 203° |
| 2026-04-16 15:26 | 37.67972 | -75.92131 | 15491 ft | 412 kts | 212° |
| 2026-04-16 15:26 | 37.65768 | -75.94432 | 14895 ft | 412 kts | 223° |
| 2026-04-16 15:26 | 37.63928 | -75.97186 | 14282 ft | 410 kts | 234° |
| 2026-04-16 15:26 | 37.62517 | -76.00307 | 13656 ft | 409 kts | 244° |
| 2026-04-16 15:27 | 37.61558 | -76.03664 | 13018 ft | 406 kts | 255° |
| 2026-04-16 15:27 | 37.61067 | -76.07152 | 12371 ft | 403 kts | 265° |
| 2026-04-16 15:27 | 37.61057 | -76.10670 | 12038 ft | 401 kts | 273° |
| 2026-04-16 15:27 | 37.61184 | -76.14189 | 11940 ft | 402 kts | 273° |
| 2026-04-16 15:28 | 37.61294 | -76.17718 | 11965 ft | 403 kts | 272° |
| 2026-04-16 15:28 | 37.61398 | -76.21251 | 11965 ft | 403 kts | 272° |
| 2026-04-16 15:28 | 37.61502 | -76.24786 | 11965 ft | 403 kts | 272° |
| 2026-04-16 15:28 | 37.61604 | -76.28315 | 11965 ft | 403 kts | 272° |
| 2026-04-16 15:29 | 37.61706 | -76.31851 | 11965 ft | 403 kts | 272° |
| 2026-04-16 15:29 | 37.61809 | -76.35387 | 11965 ft | 403 kts | 272° |
| 2026-04-16 15:29 | 37.61914 | -76.38922 | 11965 ft | 403 kts | 272° |
| 2026-04-16 15:29 | 37.62020 | -76.42453 | 11965 ft | 403 kts | 272° |
| 2026-04-16 15:30 | 37.62125 | -76.45991 | 11965 ft | 403 kts | 272° |
| 2026-04-16 15:30 | 37.62227 | -76.49509 | 11753 ft | 399 kts | 272° |
| 2026-04-16 15:30 | 37.62326 | -76.52995 | 11050 ft | 396 kts | 272° |
| 2026-04-16 15:30 | 37.62398 | -76.56448 | 10385 ft | 393 kts | 270° |
| 2026-04-16 15:31 | 37.62361 | -76.59834 | 10177 ft | 377 kts | 269° |
| 2026-04-16 15:31 | 37.62316 | -76.63072 | 9937 ft | 364 kts | 269° |
| 2026-04-16 15:31 | 37.62272 | -76.66270 | 9291 ft | 365 kts | 269° |
| 2026-04-16 15:31 | 37.62228 | -76.69472 | 8683 ft | 364 kts | 269° |
| 2026-04-16 15:32 | 37.62185 | -76.72649 | 8181 ft | 361 kts | 269° |
| 2026-04-16 15:32 | 37.62144 | -76.75800 | 7678 ft | 357 kts | 269° |
| 2026-04-16 15:32 | 37.62102 | -76.78913 | 7179 ft | 354 kts | 269° |
| 2026-04-16 15:32 | 37.62063 | -76.82009 | 6675 ft | 352 kts | 269° |
| 2026-04-16 15:33 | 37.62026 | -76.85068 | 6169 ft | 343 kts | 269° |
| 2026-04-16 15:33 | 37.61988 | -76.88002 | 5671 ft | 327 kts | 269° |
| 2026-04-16 15:33 | 37.61951 | -76.90818 | 5171 ft | 315 kts | 269° |
| 2026-04-16 15:33 | 37.61915 | -76.93535 | 4671 ft | 305 kts | 269° |
| 2026-04-16 15:34 | 37.61878 | -76.96174 | 4171 ft | 297 kts | 269° |
| 2026-04-16 15:34 | 37.61846 | -76.98752 | 3665 ft | 291 kts | 269° |
| 2026-04-16 15:34 | 37.61814 | -77.01255 | 3174 ft | 287 kts | 270° |
| 2026-04-16 15:34 | 37.61776 | -77.03716 | 2962 ft | 273 kts | 269° |
| 2026-04-16 15:35 | 37.61746 | -77.06046 | 2965 ft | 265 kts | 269° |
| 2026-04-16 15:35 | 37.61718 | -77.08369 | 2965 ft | 265 kts | 270° |
| 2026-04-16 15:35 | 37.61683 | -77.10716 | 2972 ft | 264 kts | 269° |
| 2026-04-16 15:35 | 37.61648 | -77.13028 | 2964 ft | 264 kts | 269° |
| 2026-04-16 15:36 | 37.61619 | -77.15347 | 2967 ft | 265 kts | 269° |
| 2026-04-16 15:36 | 37.61591 | -77.17668 | 2967 ft | 264 kts | 269° |
| 2026-04-16 15:36 | 37.61564 | -77.19889 | 2959 ft | 249 kts | 269° |
| 2026-04-16 15:36 | 37.61538 | -77.22020 | 2961 ft | 238 kts | 269° |
| 2026-04-16 15:37 | 37.61512 | -77.24117 | 2971 ft | 234 kts | 269° |
| 2026-04-16 15:37 | 37.61484 | -77.26135 | 3004 ft | 234 kts | 269° |
| 2026-04-16 15:37 | 37.61457 | -77.28169 | 2821 ft | 229 kts | 270° |
| 2026-04-16 15:37 | 37.61429 | -77.30184 | 2477 ft | 230 kts | 269° |
| 2026-04-16 15:38 | 37.61392 | -77.32138 | 2467 ft | 217 kts | 264° |
| 2026-04-16 15:38 | 37.60963 | -77.33920 | 2457 ft | 210 kts | 244° |
| 2026-04-16 15:38 | 37.60272 | -77.35519 | 2198 ft | 202 kts | 224° |
| 2026-04-16 15:38 | 37.59233 | -77.36607 | 1880 ft | 191 kts | 209° |
| 2026-04-16 15:39 | 37.58124 | -77.37567 | 1827 ft | 194 kts | 207° |
| 2026-04-16 15:39 | 37.56897 | -77.38059 | 1736 ft | 180 kts | 170° |
| 2026-04-16 15:39 | 37.55794 | -77.37504 | 1699 ft | 168 kts | 133° |
| 2026-04-16 15:39 | 37.55194 | -77.36283 | 1344 ft | 164 kts | 110° |
| 2026-04-16 15:40 | 37.54622 | -77.35059 | 1035 ft | 163 kts | 123° |
| 2026-04-16 15:40 | 37.53890 | -77.34103 | 797 ft | 142 kts | 139° |
| 2026-04-16 15:40 | 37.53058 | -77.33501 | 507 ft | 133 kts | 139° |
| 2026-04-16 15:40 | 37.52303 | -77.32857 | 383 ft | 130 kts | 145° |
| 2026-04-16 15:41 | 37.51554 | -77.32263 | 295 ft | 125 kts | 142° |
| 2026-04-16 15:41 | 37.50835 | -77.31675 | 171 ft | 114 kts | 142° |
| 2026-04-16 15:41 | 37.50288 | -77.31238 | 167 ft | 69 kts | 146° |
| 2026-04-16 15:41 | 37.50025 | -77.31034 | 164 ft | 20 kts | 151° |
| 2026-04-16 15:42 | 37.49986 | -77.31005 | 164 ft | 13 kts | 152° |
| 2026-04-16 15:42 | 37.49818 | -77.30878 | 165 ft | 35 kts | 147° |
| 2026-04-16 15:42 | 37.49616 | -77.30737 | 166 ft | 27 kts | 184° |
| 2026-04-16 15:42 | 37.49539 | -77.30828 | 166 ft | 0 kts | 239° |
| 2026-04-16 15:43 | 37.49531 | -77.30846 | 166 ft | 4 kts | 239° |
| 2026-04-16 15:43 | 37.49520 | -77.30891 | 166 ft | 7 kts | 262° |
| 2026-04-16 15:43 | 37.49544 | -77.30938 | 167 ft | 8 kts | 310° |
| 2026-04-16 15:43 | 37.49613 | -77.31021 | 166 ft | 21 kts | 328° |
| 2026-04-16 15:44 | 37.49754 | -77.31132 | 165 ft | 25 kts | 328° |
| 2026-04-16 15:44 | 37.49913 | -77.31257 | 163 ft | 29 kts | 328° |
| 2026-04-16 15:44 | 37.50085 | -77.31400 | 165 ft | 31 kts | 326° |
| 2026-04-16 15:44 | 37.50270 | -77.31549 | 167 ft | 32 kts | 328° |
| 2026-04-16 15:45 | 37.50379 | -77.31707 | 167 ft | 24 kts | 276° |
| 2026-04-16 15:45 | 37.50396 | -77.31921 | 169 ft | 26 kts | 276° |
| 2026-04-16 15:45 | 37.50409 | -77.32156 | 169 ft | 28 kts | 273° |
| 2026-04-16 15:45 | 37.50425 | -77.32411 | 169 ft | 31 kts | 275° |
| 2026-04-16 15:46 | 37.50444 | -77.32685 | 167 ft | 18 kts | 274° |
| 2026-04-16 15:46 | 37.50455 | -77.32824 | 171 ft | 16 kts | 283° |
| 2026-04-16 15:46 | 37.50525 | -77.32912 | 171 ft | 17 kts | 7° |
| 2026-04-16 15:46 | 37.50649 | -77.32881 | 171 ft | 19 kts | 15° |
| 2026-04-16 15:47 | 37.50784 | -77.32835 | 173 ft | 21 kts | 15° |
| 2026-04-16 15:47 | 37.50909 | -77.32800 | 171 ft | 15 kts | 4° |
| 2026-04-16 15:47 | 37.50925 | -77.32879 | 170 ft | 13 kts | 209° |
| 2026-04-16 15:47 | 37.50870 | -77.32907 | 172 ft | 12 kts | 195° |
| 2026-04-16 15:48 | 37.50784 | -77.32928 | 173 ft | 14 kts | 193° |
| 2026-04-16 15:48 | 37.50681 | -77.32957 | 172 ft | 17 kts | 192° |
| 2026-04-16 15:48 | 37.50560 | -77.32999 | 172 ft | 13 kts | 197° |
| 2026-04-16 15:48 | 37.50488 | -77.33019 | 171 ft | 12 kts | 189° |
| 2026-04-16 15:49 | 37.50456 | -77.33109 | 170 ft | 14 kts | 295° |
| 2026-04-16 15:49 | 37.50490 | -77.33134 | 171 ft | 0 kts | 10° |
| 2026-04-16 15:49 | 37.50497 | -77.33132 | 171 ft | 3 kts | 13° |
| 2026-04-16 15:49 | 37.50515 | -77.33124 | 171 ft | 1 kts | 16° |
| 2026-04-16 15:50 | 37.50516 | -77.33124 | 171 ft | 0 kts | 11° |